createdAt,value
2019-05-26T00:01:49.216Z,10.16
2019-05-26T00:04:35.799Z,10.02
2019-05-26T00:07:30.088Z,9.98
2019-05-26T00:10:11.083Z,10.03
2019-05-26T00:12:57.535Z,10.04
2019-05-26T00:15:43.701Z,10.09
2019-05-26T00:18:33.200Z,10.10
2019-05-26T00:21:18.217Z,9.94
2019-05-26T00:24:04.146Z,9.93
2019-05-26T00:26:50.588Z,9.87
2019-05-26T00:29:37.281Z,9.87
2019-05-26T00:32:23.825Z,9.82
2019-05-26T00:35:10.215Z,9.73
2019-05-26T00:37:56.836Z,9.85
2019-05-26T00:40:43.482Z,9.88
2019-05-26T00:43:29.669Z,9.89
2019-05-26T00:46:21.259Z,9.87
2019-05-26T00:49:08.110Z,9.89
2019-05-26T00:51:54.566Z,9.84
2019-05-26T00:54:40.886Z,9.81
2019-05-26T00:57:27.646Z,9.88
2019-05-26T01:00:14.700Z,9.85
2019-05-26T01:03:00.890Z,9.74
2019-05-26T01:05:47.176Z,9.73
2019-05-26T01:08:40.320Z,9.64
2019-05-26T01:11:42.545Z,9.52
2019-05-26T01:14:33.932Z,9.65
2019-05-26T01:18:02.637Z,9.65
2019-05-26T01:21:07.782Z,9.62
2019-05-26T01:24:04.966Z,9.59
2019-05-26T01:27:22.552Z,9.63
2019-05-26T01:30:52.924Z,9.71
2019-05-26T01:34:10.044Z,9.65
2019-05-26T01:37:25.425Z,9.65
2019-05-26T01:40:18.835Z,9.75
2019-05-26T01:46:28.149Z,9.63
2019-05-26T01:49:58.319Z,9.62
2019-05-26T01:52:44.271Z,9.61
2019-05-26T01:55:30.461Z,9.53
2019-05-26T01:58:16.428Z,9.53
2019-05-26T02:01:02.661Z,9.56
2019-05-26T02:03:48.766Z,9.69
2019-05-26T02:06:34.850Z,9.62
2019-05-26T02:09:21.055Z,9.55
2019-05-26T02:12:07.182Z,9.51
2019-05-26T02:14:53.264Z,9.57
2019-05-26T02:17:39.531Z,9.68
2019-05-26T02:20:25.753Z,9.75
2019-05-26T02:23:11.881Z,9.84
2019-05-26T02:25:58.199Z,9.89
2019-05-26T02:28:44.200Z,9.89
2019-05-26T02:31:30.540Z,9.88
2019-05-26T02:34:16.453Z,9.97
2019-05-26T02:37:02.732Z,9.94
2019-05-26T02:39:48.816Z,9.90
2019-05-26T02:42:34.855Z,9.93
2019-05-26T02:45:21.253Z,9.93
2019-05-26T02:48:07.490Z,10.05
2019-05-26T02:50:53.503Z,10.07
2019-05-26T02:53:39.728Z,10.16
2019-05-26T02:56:25.893Z,10.26
2019-05-26T02:59:11.825Z,10.30
2019-05-26T03:02:03.599Z,10.29
2019-05-26T03:04:46.562Z,10.26
2019-05-26T03:07:32.887Z,10.27
2019-05-26T03:10:18.726Z,10.20
2019-05-26T03:13:05.085Z,10.24
2019-05-26T03:15:51.194Z,10.22
2019-05-26T03:18:38.918Z,10.23
2019-05-26T03:21:25.657Z,10.31
2019-05-26T03:24:13.517Z,10.50
2019-05-26T03:26:59.782Z,10.65
2019-05-26T03:29:45.758Z,10.83
2019-05-26T03:32:31.918Z,10.96
2019-05-26T03:35:17.845Z,11.03
2019-05-26T03:38:04.113Z,11.04
2019-05-26T03:40:50.002Z,11.03
2019-05-26T03:43:36.135Z,11.07
2019-05-26T03:46:22.524Z,11.16
2019-05-26T03:49:09.214Z,11.20
2019-05-26T03:51:55.543Z,11.23
2019-05-26T03:54:41.556Z,11.26
2019-05-26T03:57:27.811Z,11.25
2019-05-26T04:00:14.541Z,11.16
2019-05-26T04:03:01.080Z,11.14
2019-05-26T04:05:47.199Z,11.13
2019-05-26T04:08:33.378Z,11.22
2019-05-26T04:11:19.542Z,11.16
2019-05-26T04:14:05.797Z,11.18
2019-05-26T04:16:52.211Z,11.34
2019-05-26T04:19:38.448Z,11.26
2019-05-26T04:22:24.606Z,11.35
2019-05-26T04:25:10.995Z,11.28
2019-05-26T04:27:57.284Z,11.27
2019-05-26T04:30:44.028Z,11.44
2019-05-26T04:33:30.616Z,11.49
2019-05-26T04:36:16.825Z,11.56
2019-05-26T04:39:05.170Z,11.46
2019-05-26T04:41:51.313Z,11.43
2019-05-26T04:44:37.475Z,11.44
2019-05-26T04:47:24.195Z,11.50
2019-05-26T04:50:10.624Z,11.61
2019-05-26T04:53:06.063Z,12.12
2019-05-26T04:55:45.478Z,12.64
2019-05-26T04:58:31.557Z,13.11
2019-05-26T05:01:18.111Z,13.73
2019-05-26T05:04:04.330Z,14.25
2019-05-26T05:06:50.775Z,14.82
2019-05-26T05:09:36.970Z,15.53
2019-05-26T05:12:23.326Z,15.62
2019-05-26T05:15:11.250Z,15.03
2019-05-26T05:17:57.675Z,14.93
2019-05-26T05:20:44.435Z,15.08
2019-05-26T05:23:30.901Z,15.00
2019-05-26T05:26:16.995Z,14.84
2019-05-26T05:29:03.666Z,14.97
2019-05-26T05:31:49.925Z,15.24
2019-05-26T05:34:36.204Z,14.93
2019-05-26T05:37:25.145Z,14.82
2019-05-26T05:40:13.431Z,14.81
2019-05-26T05:42:59.725Z,14.51
2019-05-26T05:45:45.830Z,14.70
2019-05-26T05:48:32.636Z,14.51
2019-05-26T05:51:19.073Z,14.29
2019-05-26T05:54:05.587Z,14.37
2019-05-26T05:56:55.490Z,15.10
2019-05-26T05:59:40.516Z,15.16
2019-05-26T06:02:26.851Z,15.70
2019-05-26T06:05:13.934Z,15.58
2019-05-26T06:08:00.014Z,15.81
2019-05-26T06:10:46.160Z,16.33
2019-05-26T06:13:32.871Z,16.92
2019-05-26T06:16:18.826Z,17.75
2019-05-26T06:19:05.166Z,18.29
2019-05-26T06:21:51.565Z,18.44
2019-05-26T06:24:37.682Z,17.40
2019-05-26T06:27:23.861Z,18.23
2019-05-26T06:30:10.589Z,18.75
2019-05-26T06:32:57.125Z,18.68
2019-05-26T06:35:43.320Z,19.20
2019-05-26T06:38:30.034Z,19.36
2019-05-26T06:41:32.394Z,20.27
2019-05-26T06:44:05.030Z,20.91
2019-05-26T06:46:51.376Z,21.20
2019-05-26T06:49:37.655Z,21.10
2019-05-26T06:52:23.926Z,20.57
2019-05-26T06:55:10.955Z,20.92
2019-05-26T06:57:57.496Z,20.96
2019-05-26T07:00:43.775Z,20.27
2019-05-26T07:03:30.138Z,20.11
2019-05-26T07:06:16.460Z,20.34
2019-05-26T07:09:04.420Z,20.77
2019-05-26T07:11:59.648Z,19.98
2019-05-26T07:14:38.600Z,20.11
2019-05-26T07:17:24.785Z,20.27
2019-05-26T07:20:11.002Z,19.49
2019-05-26T07:22:57.590Z,19.61
2019-05-26T07:25:43.845Z,20.07
2019-05-26T07:28:30.371Z,20.64
2019-05-26T07:31:16.615Z,21.09
2019-05-26T07:34:03.146Z,20.94
2019-05-26T07:36:49.467Z,20.95
2019-05-26T07:39:35.765Z,20.55
2019-05-26T07:42:21.988Z,20.40
2019-05-26T07:45:10.480Z,20.77
2019-05-26T07:47:56.947Z,21.18
2019-05-26T07:50:43.601Z,21.89
2019-05-26T07:53:29.976Z,22.27
2019-05-26T07:56:16.065Z,22.09
2019-05-26T07:59:02.863Z,22.45
2019-05-26T08:01:48.936Z,21.61
2019-05-26T08:04:35.153Z,22.14
2019-05-26T08:07:23.135Z,21.76
2019-05-26T08:10:11.196Z,23.01
2019-05-26T08:13:01.381Z,23.01
2019-05-26T08:15:48.122Z,22.67
2019-05-26T08:18:37.810Z,24.10
2019-05-26T08:21:24.791Z,23.47
2019-05-26T08:24:11.234Z,23.47
2019-05-26T08:26:57.865Z,24.05
2019-05-26T08:29:44.518Z,24.33
2019-05-26T08:32:30.900Z,24.59
2019-05-26T08:35:17.211Z,24.93
2019-05-26T08:38:06.071Z,25.06
2019-05-26T08:41:19.382Z,24.11
2019-05-26T08:48:29.814Z,22.99
2019-05-26T08:52:06.335Z,23.88
2019-05-26T08:55:18.550Z,23.88
2019-05-26T08:58:11.916Z,23.81
2019-05-26T09:01:10.151Z,22.84
2019-05-26T09:03:59.953Z,21.90
2019-05-26T09:07:04.779Z,21.43
2019-05-26T09:14:18.061Z,20.37
2019-05-26T09:17:57.503Z,20.64
2019-05-26T09:20:51.186Z,20.45
2019-05-26T09:24:10.473Z,20.52
2019-05-26T09:26:57.171Z,20.91
2019-05-26T09:29:54.417Z,20.78
2019-05-26T09:32:46.771Z,20.25
2019-05-26T09:39:47.344Z,19.99
2019-05-26T09:43:14.772Z,20.17
2019-05-26T09:46:29.174Z,20.29
2019-05-26T09:56:58.036Z,20.34
2019-05-26T10:00:23.931Z,20.53
2019-05-26T10:03:47.514Z,20.15
2019-05-26T10:07:01.865Z,20.67
2019-05-26T10:09:48.992Z,20.79
2019-05-26T10:12:57.308Z,21.21
2019-05-26T10:15:48.003Z,20.75
2019-05-26T10:18:57.681Z,21.18
2019-05-26T10:21:48.522Z,20.55
2019-05-26T10:24:59.378Z,20.98
2019-05-26T10:32:12.809Z,21.32
2019-05-26T10:39:10.139Z,21.16
2019-05-26T10:42:54.016Z,21.31
2019-05-26T10:46:09.839Z,21.33
2019-05-26T10:49:04.166Z,21.61
2019-05-26T10:51:59.154Z,21.52
2019-05-26T10:54:45.108Z,21.52
2019-05-26T10:57:35.737Z,21.30
2019-05-26T11:00:39.886Z,21.08
2019-05-26T11:03:29.330Z,21.36
2019-05-26T11:06:45.729Z,22.13
2019-05-26T11:09:12.991Z,22.66
2019-05-26T11:12:13.164Z,21.77
2019-05-26T11:15:17.973Z,21.58
2019-05-26T11:18:18.621Z,21.22
2019-05-26T11:21:28.577Z,21.71
2019-05-26T11:24:30.705Z,22.03
2019-05-26T11:27:23.692Z,22.53
2019-05-26T11:30:19.831Z,22.78
2019-05-26T11:33:54.425Z,23.09
2019-05-26T11:36:49.058Z,23.03
2019-05-26T11:39:46.459Z,22.80
2019-05-26T11:42:36.685Z,22.51
2019-05-26T11:45:28.057Z,22.23
2019-05-26T11:48:14.105Z,22.21
2019-05-26T11:51:13.926Z,22.09
2019-05-26T11:54:05.585Z,22.02
2019-05-26T11:56:51.943Z,21.87
2019-05-26T11:59:47.005Z,22.10
2019-05-26T12:02:34.943Z,22.61
2019-05-26T12:05:23.845Z,23.06
2019-05-26T12:08:12.844Z,23.20
2019-05-26T12:11:31.987Z,23.21
2019-05-26T12:14:34.405Z,23.50
2019-05-26T12:17:17.103Z,23.53
2019-05-26T12:20:13.924Z,22.98
2019-05-26T12:23:10.372Z,23.25
2019-05-26T12:26:12.766Z,22.92
2019-05-26T12:29:00.323Z,22.82
2019-05-26T12:31:56.437Z,22.74
2019-05-26T12:34:51.518Z,22.73
2019-05-26T12:38:10.737Z,23.15
2019-05-26T12:40:58.397Z,22.86
2019-05-26T12:43:44.759Z,22.72
2019-05-26T12:46:31.010Z,21.84
2019-05-26T12:49:17.122Z,22.47
2019-05-26T12:52:03.483Z,22.12
2019-05-26T12:54:50.062Z,22.04
2019-05-26T12:57:36.311Z,22.29
2019-05-26T13:00:22.921Z,22.54
2019-05-26T13:03:09.184Z,23.20
2019-05-26T13:05:55.241Z,22.50
2019-05-26T13:08:41.562Z,22.33
2019-05-26T13:11:28.049Z,21.99
2019-05-26T13:14:14.152Z,22.02
2019-05-26T13:17:01.656Z,22.58
2019-05-26T13:19:47.950Z,22.60
2019-05-26T13:22:34.611Z,22.45
2019-05-26T13:25:21.569Z,22.51
2019-05-26T13:28:07.803Z,22.68
2019-05-26T13:30:53.843Z,23.11
2019-05-26T13:33:40.106Z,23.43
2019-05-26T13:36:26.116Z,23.23
2019-05-26T13:39:12.383Z,23.55
2019-05-26T13:41:58.639Z,23.42
2019-05-26T13:44:44.806Z,23.17
2019-05-26T13:47:30.983Z,22.72
2019-05-26T13:50:17.636Z,22.71
2019-05-26T13:53:03.903Z,22.75
2019-05-26T13:55:49.993Z,23.01
2019-05-26T13:58:36.322Z,22.78
2019-05-26T14:01:22.363Z,22.59
2019-05-26T14:04:08.583Z,22.63
2019-05-26T14:06:54.950Z,22.89
2019-05-26T14:09:41.536Z,22.83
2019-05-26T14:12:27.728Z,22.44
2019-05-26T14:15:14.048Z,22.30
2019-05-26T14:18:00.432Z,22.60
2019-05-26T14:20:46.910Z,22.91
2019-05-26T14:23:33.409Z,23.02
2019-05-26T14:26:19.468Z,22.41
2019-05-26T14:29:05.990Z,22.56
2019-05-26T14:31:52.965Z,22.56
2019-05-26T14:34:39.812Z,22.69
2019-05-26T14:37:26.108Z,22.58
2019-05-26T14:40:12.288Z,23.21
2019-05-26T14:42:58.332Z,23.09
2019-05-26T14:45:52.808Z,23.15
2019-05-26T14:48:32.749Z,22.90
2019-05-26T14:51:19.009Z,22.45
2019-05-26T14:54:05.388Z,22.23
2019-05-26T14:56:51.429Z,22.25
2019-05-26T14:59:37.566Z,22.48
2019-05-26T15:02:23.786Z,22.53
2019-05-26T15:05:09.997Z,22.39
2019-05-26T15:07:56.207Z,22.66
2019-05-26T15:10:42.223Z,22.68
2019-05-26T15:13:28.384Z,22.51
2019-05-26T15:16:14.446Z,22.38
2019-05-26T15:19:00.903Z,22.38
2019-05-26T15:21:47.383Z,22.31
2019-05-26T15:24:33.523Z,22.28
2019-05-26T15:27:20.127Z,22.04
2019-05-26T15:30:08.483Z,21.97
2019-05-26T15:32:54.383Z,21.53
2019-05-26T15:35:40.623Z,21.53
2019-05-26T15:38:41.691Z,21.13
2019-05-26T15:41:15.203Z,21.13
2019-05-26T15:44:01.724Z,21.16
2019-05-26T15:46:47.926Z,21.10
2019-05-26T15:49:34.371Z,21.09
2019-05-26T15:52:20.823Z,21.18
2019-05-26T15:55:07.487Z,21.19
2019-05-26T15:57:53.689Z,21.21
2019-05-26T16:00:39.684Z,21.37
2019-05-26T16:03:25.764Z,21.39
2019-05-26T16:06:12.245Z,21.55
2019-05-26T16:08:58.563Z,21.79
2019-05-26T16:11:44.815Z,21.87
2019-05-26T16:14:31.063Z,21.71
2019-05-26T16:17:17.031Z,21.97
2019-05-26T16:20:04.047Z,22.02
2019-05-26T16:22:50.343Z,21.97
2019-05-26T16:25:36.503Z,22.17
2019-05-26T16:28:22.784Z,22.09
2019-05-26T16:31:12.031Z,21.84
2019-05-26T16:33:56.764Z,22.00
2019-05-26T16:36:43.104Z,21.85
2019-05-26T16:39:36.944Z,21.87
2019-05-26T16:42:17.303Z,22.03
2019-05-26T16:45:04.352Z,21.76
2019-05-26T16:47:50.691Z,21.59
2019-05-26T16:50:36.803Z,21.74
2019-05-26T16:53:23.054Z,21.58
2019-05-26T16:56:09.101Z,21.63
2019-05-26T16:58:55.188Z,21.47
2019-05-26T17:01:41.597Z,21.30
2019-05-26T17:04:27.609Z,21.33
2019-05-26T17:07:13.824Z,21.38
2019-05-26T17:10:00.159Z,21.28
2019-05-26T17:12:46.192Z,21.15
2019-05-26T17:15:32.524Z,21.05
2019-05-26T17:18:18.619Z,21.09
2019-05-26T17:21:04.813Z,21.25
2019-05-26T17:23:50.835Z,21.10
2019-05-26T17:26:37.624Z,20.97
2019-05-26T17:29:24.185Z,21.02
2019-05-26T17:32:11.064Z,20.96
2019-05-26T17:34:58.024Z,20.97
2019-05-26T17:37:44.236Z,20.97
2019-05-26T17:40:30.439Z,20.92
2019-05-26T17:43:19.006Z,21.05
2019-05-26T17:46:05.397Z,21.17
2019-05-26T17:48:51.452Z,20.99
2019-05-26T17:51:37.567Z,21.05
2019-05-26T17:54:23.661Z,20.79
2019-05-26T17:57:09.951Z,20.93
2019-05-26T17:59:56.026Z,20.93
2019-05-26T18:02:42.341Z,20.81
2019-05-26T18:05:28.528Z,20.78
2019-05-26T18:08:14.683Z,20.73
2019-05-26T18:11:00.894Z,20.58
2019-05-26T18:13:47.142Z,20.68
2019-05-26T18:16:33.221Z,20.58
2019-05-26T18:19:19.359Z,20.57
2019-05-26T18:22:08.052Z,20.52
2019-05-26T18:24:58.349Z,20.50
2019-05-26T18:27:42.526Z,20.58
2019-05-26T18:30:28.943Z,20.43
2019-05-26T18:33:15.037Z,20.42
2019-05-26T18:36:01.291Z,20.40
2019-05-26T18:38:47.672Z,20.49
2019-05-26T18:41:34.000Z,20.50
2019-05-26T18:44:20.257Z,20.40
2019-05-26T18:47:06.401Z,20.46
2019-05-26T18:49:52.316Z,20.46
2019-05-26T18:52:38.692Z,20.44
2019-05-26T18:55:24.587Z,20.35
2019-05-26T18:58:10.882Z,20.17
2019-05-26T19:00:57.302Z,20.14
2019-05-26T19:03:43.817Z,20.13
2019-05-26T19:06:29.901Z,20.12
2019-05-26T19:09:16.203Z,20.07
2019-05-26T19:12:02.679Z,20.02
2019-05-26T19:14:48.916Z,19.89
2019-05-26T19:17:35.875Z,19.90
2019-05-26T19:20:22.993Z,19.71
2019-05-26T19:23:09.392Z,19.63
2019-05-26T19:25:56.013Z,19.62
2019-05-26T19:28:42.627Z,19.54
2019-05-26T19:31:29.573Z,19.45
2019-05-26T19:34:16.440Z,19.48
2019-05-26T19:37:03.494Z,19.39
2019-05-26T19:39:50.202Z,19.34
2019-05-26T19:42:37.011Z,19.32
2019-05-26T19:45:23.332Z,19.28
2019-05-26T19:48:09.553Z,19.28
2019-05-26T19:50:56.412Z,19.31
2019-05-26T19:53:45.722Z,19.29
2019-05-26T19:56:31.977Z,19.26
2019-05-26T19:59:18.521Z,19.23
2019-05-26T20:02:17.786Z,19.17
2019-05-26T20:04:53.225Z,19.19
2019-05-26T20:07:41.276Z,19.24
2019-05-26T20:10:27.857Z,19.20
2019-05-26T20:13:14.051Z,19.10
2019-05-26T20:16:00.757Z,19.13
2019-05-26T20:18:47.595Z,19.13
2019-05-26T20:21:34.021Z,19.09
2019-05-26T20:24:20.569Z,19.14
2019-05-26T20:27:07.177Z,19.16
2019-05-26T20:29:53.516Z,19.06
2019-05-26T20:32:39.710Z,19.04
2019-05-26T20:35:26.367Z,19.03
2019-05-26T20:38:12.621Z,19.02
2019-05-26T20:40:58.798Z,18.98
2019-05-26T20:43:45.306Z,18.98
2019-05-26T20:46:31.939Z,18.95
2019-05-26T20:49:18.550Z,18.93
2019-05-26T20:52:04.872Z,18.91
2019-05-26T20:54:51.405Z,18.92
2019-05-26T20:57:38.211Z,18.88
2019-05-26T21:00:24.836Z,18.87
2019-05-26T21:03:11.353Z,18.82
2019-05-26T21:05:57.463Z,18.85
2019-05-26T21:08:44.121Z,18.77
2019-05-26T21:11:30.191Z,18.73
2019-05-26T21:14:16.731Z,18.72
2019-05-26T21:17:03.181Z,18.66
2019-05-26T21:19:49.346Z,18.64
2019-05-26T21:22:36.324Z,18.61
2019-05-26T21:25:22.706Z,18.48
2019-05-26T21:28:08.976Z,18.52
2019-05-26T21:30:55.112Z,18.50
2019-05-26T21:33:41.356Z,18.43
2019-05-26T21:36:27.871Z,18.36
2019-05-26T21:39:14.756Z,18.29
2019-05-26T21:42:01.387Z,18.24
2019-05-26T21:44:47.959Z,18.09
2019-05-26T21:47:34.756Z,18.09
2019-05-26T21:50:21.403Z,18.02
2019-05-26T21:53:07.835Z,18.02
2019-05-26T21:55:54.102Z,18.00
2019-05-26T21:58:40.427Z,17.93
2019-05-26T22:01:26.622Z,17.93
2019-05-26T22:04:13.147Z,17.94
2019-05-26T22:06:59.766Z,17.95
2019-05-26T22:09:46.026Z,17.93
2019-05-26T22:12:32.002Z,17.90
2019-05-26T22:15:18.637Z,17.93
2019-05-26T22:18:05.066Z,17.92
2019-05-26T22:20:51.372Z,17.88
2019-05-26T22:23:37.592Z,17.90
2019-05-26T22:26:24.102Z,17.83
2019-05-26T22:29:10.720Z,17.79
2019-05-26T22:31:56.778Z,17.79
2019-05-26T22:34:43.689Z,17.74
2019-05-26T22:37:29.642Z,17.72
2019-05-26T22:40:16.570Z,17.72
2019-05-26T22:43:03.182Z,17.66
2019-05-26T22:45:49.471Z,17.65
2019-05-26T22:48:35.687Z,17.61
2019-05-26T22:51:21.998Z,17.58
2019-05-26T22:54:09.217Z,17.56
2019-05-26T22:56:55.387Z,17.47
2019-05-26T22:59:42.097Z,17.47
2019-05-26T23:02:28.588Z,17.42
2019-05-26T23:05:14.956Z,17.38
2019-05-26T23:08:01.518Z,17.30
2019-05-26T23:10:47.826Z,17.38
2019-05-26T23:13:34.462Z,17.31
2019-05-26T23:16:21.002Z,17.31
2019-05-26T23:19:18.827Z,17.38
2019-05-26T23:21:55.439Z,17.27
2019-05-26T23:24:42.421Z,17.26
2019-05-26T23:27:28.756Z,17.30
2019-05-26T23:30:15.207Z,17.24
2019-05-26T23:33:01.712Z,17.27
2019-05-26T23:35:47.873Z,17.23
2019-05-26T23:38:34.080Z,17.12
2019-05-26T23:41:20.031Z,17.15
2019-05-26T23:44:06.169Z,17.12
2019-05-26T23:46:52.367Z,17.03
2019-05-26T23:49:39.028Z,17.14
2019-05-26T23:52:25.531Z,17.04
2019-05-26T23:55:11.681Z,17.15
2019-05-26T23:57:57.771Z,17.18
